Time;durP1;ratioP1;P1;durP2;ratioP2;P2;SDS_P1;SDS_P2;PMS_P1;PMS_P2;Temp;Humidity;BMP_temperature;BMP_pressure;BME280_temperature;BME280_humidity;BME280_pressure;Samples;Min_cycle;Max_cycle;Signal;HPM_P1;HPM_P2
2021/03/12 00:02:07;;;;;;;8.50;1.90;;;15.10;99.90;;;;;;5052713;28;20079;-65
2021/03/12 00:04:33;;;;;;;5.65;1.67;;;15.10;99.90;;;;;;5052815;28;20108;-64
2021/03/12 00:06:59;;;;;;;7.10;1.88;;;15.10;99.90;;;;;;5053294;28;20052;-65
2021/03/12 00:09:24;;;;;;;8.18;1.90;;;15.10;99.90;;;;;;5053546;28;20031;-66
2021/03/12 00:11:52;;;;;;;8.07;1.88;;;15.00;99.90;;;;;;5052522;28;20112;-67
2021/03/12 00:14:18;;;;;;;8.45;2.20;;;15.10;99.90;;;;;;5052895;28;20051;-65
2021/03/12 00:16:43;;;;;;;8.15;1.83;;;15.10;99.90;;;;;;5052786;28;20112;-67
2021/03/12 00:19:09;;;;;;;5.35;1.48;;;15.00;99.90;;;;;;5052874;28;20427;-67
2021/03/12 00:21:35;;;;;;;5.68;1.70;;;15.10;99.90;;;;;;5052562;28;20037;-65
2021/03/12 00:24:01;;;;;;;9.35;2.00;;;15.00;99.90;;;;;;5052997;28;20033;-67
2021/03/12 00:26:26;;;;;;;8.60;1.92;;;15.10;99.90;;;;;;5053295;28;20484;-64
2021/03/12 00:28:52;;;;;;;8.05;1.67;;;15.00;99.90;;;;;;5052044;28;20465;-67
2021/03/12 00:31:18;;;;;;;7.35;2.08;;;15.00;99.90;;;;;;5052854;28;20422;-67
2021/03/12 00:33:43;;;;;;;8.10;2.00;;;15.00;99.90;;;;;;5051332;28;20483;-67
2021/03/12 00:36:09;;;;;;;8.13;2.30;;;14.90;99.90;;;;;;5052659;28;20025;-67
2021/03/12 00:38:35;;;;;;;7.43;1.58;;;14.90;99.90;;;;;;5052413;28;20354;-66
2021/03/12 00:41:04;;;;;;;6.18;1.55;;;14.90;99.90;;;;;;5052666;28;20040;-66
2021/03/12 00:43:29;;;;;;;7.97;1.92;;;14.90;99.90;;;;;;5052430;28;20031;-66
2021/03/12 00:46:00;;;;;;;6.88;1.95;;;15.00;99.90;;;;;;5052741;28;20025;-66
2021/03/12 00:48:26;;;;;;;7.03;1.92;;;15.00;99.90;;;;;;5052455;28;20033;-67
2021/03/12 00:50:53;;;;;;;7.93;2.10;;;14.90;99.90;;;;;;5052242;28;20095;-67
2021/03/12 00:53:19;;;;;;;12.13;2.33;;;14.90;99.90;;;;;;5052129;28;20120;-66
2021/03/12 00:55:45;;;;;;;9.20;1.85;;;14.90;99.90;;;;;;5052343;28;20029;-66
2021/03/12 00:58:11;;;;;;;9.77;1.80;;;14.90;99.90;;;;;;5052259;28;20111;-66
2021/03/12 01:00:38;;;;;;;6.68;1.98;;;14.90;99.90;;;;;;5050929;28;20582;-64
2021/03/12 01:03:05;;;;;;;4.38;1.40;;;14.80;99.90;;;;;;5052128;28;20033;-64
2021/03/12 01:05:31;;;;;;;7.72;1.80;;;14.80;99.90;;;;;;5041963;28;20040;-64
2021/03/12 01:07:57;;;;;;;8.93;1.90;;;14.80;99.90;;;;;;5038142;28;20078;-64
2021/03/12 01:10:24;;;;;;;7.18;1.98;;;14.80;99.90;;;;;;5052148;28;20071;-64
2021/03/12 01:12:50;;;;;;;6.80;2.03;;;14.80;99.90;;;;;;5051888;28;20059;-64
2021/03/12 01:15:23;;;;;;;7.07;1.95;;;14.80;99.90;;;;;;5051881;28;20060;-64
2021/03/12 01:17:49;;;;;;;5.30;1.50;;;14.80;99.90;;;;;;5052060;28;20047;-63
2021/03/12 01:20:19;;;;;;;7.28;2.17;;;14.70;99.90;;;;;;5051732;28;20040;-62
2021/03/12 01:22:46;;;;;;;5.95;1.80;;;14.80;99.90;;;;;;5051955;28;20025;-65
2021/03/12 01:25:17;;;;;;;7.35;1.85;;;14.70;99.90;;;;;;5051969;28;20477;-64
2021/03/12 01:27:43;;;;;;;5.75;1.83;;;14.70;99.90;;;;;;5051682;28;20032;-64
2021/03/12 01:30:11;;;;;;;5.38;1.75;;;14.70;99.90;;;;;;5051423;28;20033;-63
2021/03/12 01:32:37;;;;;;;9.15;2.20;;;14.70;99.90;;;;;;5051342;28;20048;-64
2021/03/12 01:35:03;;;;;;;9.00;2.30;;;14.70;99.90;;;;;;5050986;28;20029;-66
2021/03/12 01:37:29;;;;;;;8.43;1.73;;;14.70;99.90;;;;;;5052116;28;20025;-64
2021/03/12 01:39:55;;;;;;;8.82;1.92;;;14.80;99.90;;;;;;5051427;28;20041;-63
2021/03/12 01:42:21;;;;;;;6.85;1.80;;;14.80;99.90;;;;;;5051492;28;20037;-63
2021/03/12 01:44:47;;;;;;;5.80;1.35;;;14.70;99.90;;;;;;5051712;28;20029;-63
2021/03/12 01:47:13;;;;;;;8.18;2.00;;;14.70;99.90;;;;;;5051742;28;20033;-65
2021/03/12 01:49:38;;;;;;;9.07;1.90;;;14.70;99.90;;;;;;5051010;28;20037;-64
2021/03/12 01:52:05;;;;;;;7.78;1.70;;;14.70;99.90;;;;;;5051580;28;20020;-64
2021/03/12 01:54:34;;;;;;;8.88;1.88;;;14.70;99.90;;;;;;5051769;28;20064;-65
2021/03/12 01:57:04;;;;;;;10.50;2.03;;;14.70;99.90;;;;;;5051613;28;20029;-64
2021/03/12 01:59:29;;;;;;;7.53;1.58;;;14.70;99.90;;;;;;5051172;28;20025;-64
2021/03/12 02:01:55;;;;;;;8.90;1.77;;;14.70;99.90;;;;;;5051229;28;20032;-64
2021/03/12 02:04:21;;;;;;;9.73;2.10;;;14.70;99.90;;;;;;5050642;28;20033;-64
2021/03/12 02:06:47;;;;;;;8.15;2.00;;;14.70;99.90;;;;;;5031488;28;20030;-64
2021/03/12 02:09:13;;;;;;;7.03;1.70;;;14.70;99.90;;;;;;5050471;28;20477;-64
2021/03/12 02:11:42;;;;;;;7.20;1.73;;;14.70;99.90;;;;;;5051607;28;20036;-64
2021/03/12 02:14:19;;;;;;;6.97;1.92;;;14.70;99.90;;;;;;5050901;28;20111;-64
2021/03/12 02:17:09;;;;;;;7.82;1.85;;;14.70;99.90;;;;;;5051120;28;20084;-65
2021/03/12 02:20:14;;;;;;;8.13;1.75;;;14.70;99.90;;;;;;5051117;28;20029;-64
2021/03/12 02:22:42;;;;;;;10.80;1.75;;;14.70;99.90;;;;;;5050909;28;20033;-66
2021/03/12 02:25:13;;;;;;;8.75;1.80;;;14.70;99.90;;;;;;5049969;28;20037;-65
2021/03/12 02:27:41;;;;;;;8.27;1.50;;;14.60;99.90;;;;;;5051167;28;20025;-64
2021/03/12 02:30:08;;;;;;;5.93;1.60;;;14.60;99.90;;;;;;5050883;28;20337;-64
2021/03/12 02:32:38;;;;;;;9.48;2.22;;;14.70;99.90;;;;;;5050954;28;20033;-65
2021/03/12 02:35:08;;;;;;;6.22;1.90;;;14.60;99.90;;;;;;5050992;28;20083;-64
2021/03/12 02:37:35;;;;;;;7.45;1.50;;;14.60;99.90;;;;;;5050946;28;20021;-65
2021/03/12 02:40:03;;;;;;;6.03;1.42;;;14.60;99.90;;;;;;5051057;28;20039;-64
2021/03/12 02:42:28;;;;;;;8.80;1.60;;;14.60;99.90;;;;;;5039598;28;20033;-65
2021/03/12 02:44:58;;;;;;;10.52;2.10;;;14.60;99.90;;;;;;5050862;28;20036;-64
2021/03/12 02:47:28;;;;;;;6.47;1.65;;;14.60;99.90;;;;;;5051011;28;20057;-64
2021/03/12 02:49:54;;;;;;;5.35;1.67;;;14.60;99.90;;;;;;5050778;28;20033;-66
2021/03/12 02:52:20;;;;;;;10.63;2.20;;;14.60;99.90;;;;;;5052173;28;20025;-65
2021/03/12 02:54:47;;;;;;;9.18;2.20;;;14.60;99.90;;;;;;5054284;28;20090;-64
2021/03/12 02:57:14;;;;;;;9.23;1.70;;;14.60;99.90;;;;;;5054108;28;20112;-64
2021/03/12 02:59:41;;;;;;;10.77;1.73;;;14.60;99.90;;;;;;5054353;28;20516;-68
2021/03/12 03:02:09;;;;;;;7.50;1.70;;;14.60;99.90;;;;;;5054300;28;20116;-65
2021/03/12 03:04:36;;;;;;;8.43;1.80;;;14.60;99.90;;;;;;5052403;28;20055;-66
2021/03/12 03:07:06;;;;;;;7.85;2.13;;;14.60;99.90;;;;;;5034882;28;20423;-66
2021/03/12 03:09:32;;;;;;;11.68;2.13;;;14.60;99.90;;;;;;5034903;28;20025;-67
2021/03/12 03:11:58;;;;;;;8.05;1.98;;;14.60;99.90;;;;;;5034470;28;20027;-65
2021/03/12 03:14:24;;;;;;;6.07;1.60;;;14.60;99.90;;;;;;5051044;28;20044;-64
2021/03/12 03:16:50;;;;;;;8.85;1.98;;;14.50;99.90;;;;;;5054131;28;20037;-66
2021/03/12 03:19:18;;;;;;;7.05;1.83;;;14.50;99.90;;;;;;5053491;28;20151;-66
2021/03/12 03:21:45;;;;;;;6.65;1.80;;;14.50;99.90;;;;;;5053811;28;20095;-66
2021/03/12 03:24:11;;;;;;;11.35;2.08;;;14.50;99.90;;;;;;5053956;28;20503;-66
2021/03/12 03:26:37;;;;;;;7.65;1.80;;;14.50;99.90;;;;;;5054375;28;20032;-65
2021/03/12 03:29:04;;;;;;;8.82;1.90;;;14.50;99.90;;;;;;5054002;28;20033;-65
2021/03/12 03:31:29;;;;;;;7.55;1.80;;;14.50;99.90;;;;;;5054071;28;20419;-65
2021/03/12 03:33:55;;;;;;;6.35;1.83;;;14.50;99.90;;;;;;5053331;28;20041;-66
2021/03/12 03:36:20;;;;;;;5.75;1.80;;;14.50;99.90;;;;;;5053818;28;20484;-65
2021/03/12 03:38:46;;;;;;;8.43;1.83;;;14.50;99.90;;;;;;5053928;28;20024;-63
2021/03/12 03:41:14;;;;;;;9.88;1.55;;;14.50;99.90;;;;;;5053816;28;20051;-65
2021/03/12 03:43:42;;;;;;;7.32;1.95;;;14.50;99.90;;;;;;5053515;28;20445;-63
2021/03/12 03:46:09;;;;;;;6.65;1.83;;;14.50;99.90;;;;;;5053764;28;20025;-65
2021/03/12 03:48:36;;;;;;;5.30;1.60;;;14.40;99.90;;;;;;5053760;28;20476;-65
2021/03/12 03:51:05;;;;;;;6.20;1.70;;;14.40;99.90;;;;;;5052673;28;20112;-65
2021/03/12 03:53:32;;;;;;;6.30;1.70;;;14.40;99.90;;;;;;5053362;28;20033;-65
2021/03/12 03:56:01;;;;;;;7.97;1.75;;;14.50;99.90;;;;;;5053727;28;20040;-64
2021/03/12 03:58:27;;;;;;;8.82;2.10;;;14.40;99.90;;;;;;5053041;28;20103;-65
2021/03/12 04:00:53;;;;;;;6.60;1.88;;;14.40;99.90;;;;;;5053288;28;20032;-64
2021/03/12 04:03:20;;;;;;;6.55;1.77;;;14.40;99.90;;;;;;5053107;28;20017;-65
2021/03/12 04:05:46;;;;;;;10.60;2.13;;;14.40;99.90;;;;;;5053291;28;20029;-64
2021/03/12 04:08:12;;;;;;;9.02;1.98;;;14.30;99.90;;;;;;5053269;28;20037;-65
2021/03/12 04:10:39;;;;;;;8.75;2.25;;;14.30;99.90;;;;;;5053465;28;20017;-66
2021/03/12 04:13:05;;;;;;;7.63;1.70;;;14.40;99.90;;;;;;5053257;28;20039;-65
2021/03/12 04:15:31;;;;;;;8.43;1.90;;;14.30;99.90;;;;;;5043256;28;20040;-65
2021/03/12 04:17:57;;;;;;;8.60;2.10;;;14.30;99.90;;;;;;5033184;28;20025;-65
2021/03/12 04:20:23;;;;;;;7.03;1.85;;;14.30;99.90;;;;;;5047326;28;20481;-65
2021/03/12 04:22:51;;;;;;;9.30;1.95;;;14.40;99.90;;;;;;5052795;28;20044;-66
2021/03/12 04:25:16;;;;;;;7.75;1.80;;;14.30;99.90;;;;;;5052998;28;20032;-64
2021/03/12 04:27:43;;;;;;;8.10;1.85;;;14.30;99.90;;;;;;5052531;28;20028;-65
2021/03/12 04:30:09;;;;;;;7.63;1.85;;;14.30;99.90;;;;;;5053214;28;20025;-65
2021/03/12 04:32:37;;;;;;;8.75;2.47;;;14.30;99.90;;;;;;5052802;28;20064;-64
2021/03/12 04:35:05;;;;;;;7.75;1.90;;;14.30;99.90;;;;;;5052490;28;20044;-66
2021/03/12 04:37:31;;;;;;;10.52;2.03;;;14.30;99.90;;;;;;5052831;28;20437;-65
2021/03/12 04:39:58;;;;;;;5.88;1.70;;;14.30;99.90;;;;;;5052277;28;20075;-65
2021/03/12 04:42:24;;;;;;;7.95;1.95;;;14.30;99.90;;;;;;5052550;28;20028;-66
2021/03/12 04:44:50;;;;;;;8.50;1.83;;;14.30;99.90;;;;;;5052178;28;20021;-67
2021/03/12 04:47:16;;;;;;;8.07;2.13;;;14.30;99.90;;;;;;5033488;28;20077;-67
2021/03/12 04:49:44;;;;;;;7.22;1.90;;;14.30;99.90;;;;;;5042719;28;20029;-64
2021/03/12 04:52:11;;;;;;;11.82;2.50;;;14.30;99.90;;;;;;5051145;28;20370;-64
2021/03/12 04:54:37;;;;;;;8.75;2.15;;;14.30;99.90;;;;;;5052702;28;20480;-66
2021/03/12 04:57:03;;;;;;;6.43;2.08;;;14.20;99.90;;;;;;5052607;28;20070;-65
2021/03/12 04:59:29;;;;;;;10.80;2.13;;;14.20;99.90;;;;;;5052002;28;20033;-64
2021/03/12 05:01:55;;;;;;;7.32;2.00;;;14.20;99.90;;;;;;5052092;28;20107;-67
2021/03/12 05:04:21;;;;;;;7.75;1.77;;;14.20;99.90;;;;;;5052291;28;20044;-64
2021/03/12 05:06:48;;;;;;;6.90;1.90;;;14.20;99.90;;;;;;5052422;28;20099;-64
2021/03/12 05:09:14;;;;;;;6.85;1.90;;;14.20;99.90;;;;;;5052133;28;20390;-66
2021/03/12 05:11:42;;;;;;;8.27;2.03;;;14.20;99.90;;;;;;5052473;28;20021;-66
2021/03/12 05:14:10;;;;;;;8.50;1.70;;;14.20;99.90;;;;;;5051816;28;20040;-66
2021/03/12 05:16:36;;;;;;;8.32;2.30;;;14.20;99.90;;;;;;5051464;28;20116;-66
2021/03/12 05:19:02;;;;;;;6.82;2.15;;;14.20;99.90;;;;;;5050639;28;20111;-66
2021/03/12 05:21:27;;;;;;;8.13;1.80;;;14.20;99.90;;;;;;5051400;28;20022;-66
2021/03/12 05:23:53;;;;;;;6.88;1.83;;;14.20;99.90;;;;;;5051674;28;20032;-67
2021/03/12 05:26:18;;;;;;;8.60;1.80;;;14.20;99.90;;;;;;5052158;28;20026;-67
2021/03/12 05:28:44;;;;;;;6.57;1.88;;;14.20;99.90;;;;;;5051719;28;20473;-63
2021/03/12 05:31:10;;;;;;;8.25;2.17;;;14.20;99.90;;;;;;5052239;28;20060;-64
2021/03/12 05:33:35;;;;;;;6.15;1.80;;;14.10;99.90;;;;;;5051446;28;20041;-63
2021/03/12 05:36:01;;;;;;;9.43;2.08;;;14.10;99.90;;;;;;5051851;28;20078;-63
2021/03/12 05:38:26;;;;;;;10.57;2.05;;;14.10;99.90;;;;;;5051657;28;20083;-64
2021/03/12 05:40:53;;;;;;;9.10;2.20;;;14.10;99.90;;;;;;5051920;28;20476;-63
2021/03/12 05:43:19;;;;;;;7.60;2.10;;;14.10;99.90;;;;;;5051613;28;20028;-63
2021/03/12 05:45:45;;;;;;;8.15;2.35;;;14.10;99.90;;;;;;5051222;28;20545;-63
2021/03/12 05:48:11;;;;;;;7.32;2.20;;;14.10;99.90;;;;;;5050799;28;20514;-63
2021/03/12 05:50:37;;;;;;;9.35;2.40;;;14.10;99.90;;;;;;5051495;28;20083;-64
2021/03/12 05:53:03;;;;;;;12.00;2.00;;;14.10;99.90;;;;;;5051432;28;20377;-63
2021/03/12 05:55:29;;;;;;;11.25;2.40;;;14.00;99.90;;;;;;5051632;28;20536;-63
2021/03/12 05:57:55;;;;;;;8.02;2.10;;;14.00;99.90;;;;;;5051244;28;20112;-64
2021/03/12 06:00:21;;;;;;;9.82;2.08;;;14.00;99.90;;;;;;5050261;28;20021;-63
2021/03/12 06:02:47;;;;;;;8.40;2.50;;;14.00;99.90;;;;;;5051381;28;20029;-64
2021/03/12 06:05:12;;;;;;;10.82;2.33;;;14.00;99.90;;;;;;5051925;28;20029;-63
2021/03/12 06:07:39;;;;;;;9.05;2.47;;;14.00;99.90;;;;;;5051506;28;20036;-64
2021/03/12 06:10:07;;;;;;;10.95;2.45;;;14.00;99.90;;;;;;5051603;28;20107;-63
2021/03/12 06:12:33;;;;;;;8.48;2.10;;;14.00;99.90;;;;;;5050303;28;20037;-63
2021/03/12 06:15:00;;;;;;;7.47;2.15;;;14.00;99.90;;;;;;5051430;28;20031;-65
2021/03/12 06:17:38;;;;;;;8.10;2.13;;;14.00;99.90;;;;;;5051025;28;20087;-63
2021/03/12 06:20:07;;;;;;;7.75;1.95;;;13.90;99.90;;;;;;5051373;28;20039;-66
2021/03/12 06:22:34;;;;;;;8.43;2.10;;;13.90;99.90;;;;;;5050903;28;20036;-66
2021/03/12 06:25:22;;;;;;;7.28;2.30;;;13.90;99.90;;;;;;5051282;28;20412;-65
2021/03/12 06:27:49;;;;;;;8.95;2.35;;;13.90;99.90;;;;;;5053279;28;20025;-64
2021/03/12 06:30:17;;;;;;;12.02;2.55;;;13.90;99.90;;;;;;5055650;28;20036;-67
2021/03/12 06:32:52;;;;;;;10.77;2.28;;;13.90;99.90;;;;;;5055214;28;20108;-67
2021/03/12 06:35:19;;;;;;;8.57;2.38;;;13.80;99.90;;;;;;5055387;28;20033;-63
2021/03/12 06:37:47;;;;;;;8.10;2.28;;;13.80;99.90;;;;;;5054470;28;20100;-66
2021/03/12 06:40:23;;;;;;;11.93;2.42;;;13.80;99.90;;;;;;5054950;28;20061;-66
2021/03/12 06:42:58;;;;;;;8.05;2.20;;;13.80;99.90;;;;;;5054843;28;20021;-67
2021/03/12 06:45:24;;;;;;;8.48;2.33;;;13.80;99.90;;;;;;5054353;28;20036;-66
2021/03/12 06:47:49;;;;;;;9.73;2.50;;;13.80;99.90;;;;;;5054395;28;20032;-66
2021/03/12 06:50:15;;;;;;;8.50;1.95;;;13.80;99.90;;;;;;5054978;28;20111;-63
2021/03/12 06:52:41;;;;;;;8.68;2.25;;;13.80;99.90;;;;;;5054276;28;20149;-67
2021/03/12 06:55:07;;;;;;;12.82;2.60;;;13.80;99.90;;;;;;5054430;28;20029;-65
2021/03/12 06:57:33;;;;;;;24.48;3.35;;;13.80;99.90;;;;;;5054766;28;20053;-64
2021/03/12 07:00:00;;;;;;;15.80;3.80;;;13.40;99.90;;;;;;5054621;28;20071;-65
2021/03/12 07:02:36;;;;;;;22.33;4.97;;;13.00;99.90;;;;;;5054308;28;20033;-73
2021/03/12 07:05:03;;;;;;;19.88;4.30;;;12.70;99.90;;;;;;5054432;28;20048;-72
2021/03/12 07:07:33;;;;;;;24.00;5.63;;;12.50;99.90;;;;;;5054651;28;20358;-72
2021/03/12 07:09:58;;;;;;;25.52;5.22;;;12.40;99.90;;;;;;5054153;28;20017;-66
2021/03/12 07:12:52;;;;;;;26.33;5.03;;;12.30;99.90;;;;;;5054195;28;20048;-65
2021/03/12 07:15:19;;;;;;;21.90;5.07;;;12.20;99.90;;;;;;5054838;28;20048;-67
2021/03/12 07:17:46;;;;;;;22.05;4.88;;;12.20;99.90;;;;;;5054134;28;20040;-66
2021/03/12 07:20:15;;;;;;;20.45;4.75;;;12.10;99.90;;;;;;5038449;28;20501;-66
2021/03/12 07:22:44;;;;;;;19.17;4.53;;;12.00;99.90;;;;;;5048292;28;20028;-66
2021/03/12 07:25:10;;;;;;;23.23;5.05;;;11.90;99.90;;;;;;5053808;28;20108;-66
2021/03/12 07:27:41;;;;;;;24.55;5.45;;;11.90;99.90;;;;;;5054388;28;20407;-67
2021/03/12 07:30:09;;;;;;;11.23;3.28;;;11.90;99.90;;;;;;5053900;28;20425;-64
2021/03/12 07:32:36;;;;;;;15.45;2.83;;;12.50;99.90;;;;;;5053263;28;20029;-63
2021/03/12 07:35:04;;;;;;;11.30;2.92;;;13.20;99.90;;;;;;5053142;28;20025;-64
2021/03/12 07:37:33;;;;;;;8.32;2.33;;;13.60;99.90;;;;;;5052349;28;20028;-63
2021/03/12 07:40:00;;;;;;;8.38;2.38;;;13.80;99.90;;;;;;5052263;28;20063;-63
2021/03/12 07:42:27;;;;;;;7.78;2.35;;;14.00;99.90;;;;;;5055158;28;20033;-63
2021/03/12 07:44:54;;;;;;;10.32;2.53;;;14.20;99.90;;;;;;5059596;28;20025;-63
2021/03/12 07:47:21;;;;;;;9.63;2.50;;;14.30;99.90;;;;;;5054203;28;20103;-63
2021/03/12 07:49:47;;;;;;;9.15;2.80;;;14.40;99.90;;;;;;5052655;28;20029;-64
2021/03/12 07:52:12;;;;;;;10.27;2.80;;;14.50;99.90;;;;;;5052630;28;20029;-65
2021/03/12 07:54:41;;;;;;;11.57;2.88;;;14.60;99.90;;;;;;5052362;28;20550;-68
2021/03/12 07:57:08;;;;;;;7.72;2.50;;;14.70;99.90;;;;;;5052885;28;20029;-64
2021/03/12 08:00:00;;;;;;;10.13;2.40;;;14.80;99.90;;;;;;5053394;28;20056;-66
2021/03/12 08:02:55;;;;;;;10.18;2.67;;;14.80;99.90;;;;;;5049031;28;20425;-64
2021/03/12 08:05:33;;;;;;;8.15;2.25;;;14.70;99.90;;;;;;5051954;28;20025;-63
2021/03/12 08:07:59;;;;;;;12.23;2.70;;;14.60;99.90;;;;;;5053426;28;20028;-63
2021/03/12 08:10:25;;;;;;;9.88;2.60;;;14.40;99.90;;;;;;5053423;28;20021;-65
2021/03/12 08:12:51;;;;;;;8.52;2.33;;;14.30;99.90;;;;;;5053830;28;20029;-65
2021/03/12 08:15:20;;;;;;;11.10;3.25;;;14.20;99.90;;;;;;5053608;28;20031;-67
2021/03/12 08:18:08;;;;;;;11.95;2.88;;;14.10;99.90;;;;;;5051475;28;20107;-68
2021/03/12 08:20:39;;;;;;;8.98;2.38;;;14.00;99.90;;;;;;5046968;28;20367;-66
2021/03/12 08:23:05;;;;;;;7.57;2.35;;;14.80;99.90;;;;;;5052988;28;20068;-61
2021/03/12 08:25:48;;;;;;;10.45;2.67;;;16.00;99.20;;;;;;5052607;28;20052;-66
2021/03/12 08:28:13;;;;;;;13.38;2.42;;;17.10;97.40;;;;;;5053009;28;20055;-67
2021/03/12 08:30:39;;;;;;;8.82;2.38;;;17.50;98.40;;;;;;5052457;28;20025;-63
2021/03/12 08:33:05;;;;;;;9.32;2.97;;;18.00;97.70;;;;;;5052600;28;20045;-66
2021/03/12 08:35:38;;;;;;;8.35;2.45;;;18.60;96.80;;;;;;5052997;28;20372;-67
2021/03/12 08:38:10;;;;;;;11.27;2.33;;;19.10;96.20;;;;;;5053039;28;20029;-66
2021/03/12 08:40:37;;;;;;;7.55;2.30;;;19.40;95.80;;;;;;5052967;28;20025;-65
2021/03/12 08:43:11;;;;;;;10.00;2.80;;;19.70;95.70;;;;;;5053014;28;20056;-64
2021/03/12 08:45:42;;;;;;;6.68;2.22;;;19.90;95.00;;;;;;5052901;28;20484;-64
2021/03/12 08:48:10;;;;;;;9.38;2.15;;;20.10;94.70;;;;;;5052701;28;20040;-64
2021/03/12 08:50:41;;;;;;;8.15;2.88;;;20.30;94.50;;;;;;5051524;28;20045;-64
2021/03/12 08:53:08;;;;;;;7.70;2.92;;;20.50;94.30;;;;;;5052106;28;20037;-65
2021/03/12 08:55:36;;;;;;;9.02;2.10;;;20.80;94.30;;;;;;5052297;28;20380;-63
2021/03/12 08:58:33;;;;;;;6.55;2.13;;;21.10;94.20;;;;;;5052578;28;20095;-64
2021/03/12 09:01:07;;;;;;;8.95;2.65;;;21.40;94.10;;;;;;5051789;28;20075;-63
2021/03/12 09:03:36;;;;;;;9.77;2.67;;;21.60;94.10;;;;;;5052473;28;20025;-63
2021/03/12 09:06:07;;;;;;;8.00;2.47;;;21.90;94.10;;;;;;5052390;28;20033;-63
2021/03/12 09:08:34;;;;;;;8.70;2.25;;;22.20;94.00;;;;;;5052543;28;20204;-67
2021/03/12 09:11:02;;;;;;;6.95;2.08;;;22.40;94.00;;;;;;5052421;28;20469;-63
2021/03/12 09:13:30;;;;;;;8.07;2.28;;;22.60;94.00;;;;;;5052112;28;20060;-61
2021/03/12 09:15:57;;;;;;;7.50;2.08;;;22.80;93.90;;;;;;5052156;28;20492;-61
2021/03/12 09:18:24;;;;;;;5.47;1.83;;;23.00;93.90;;;;;;5051412;28;20025;-61
2021/03/12 09:20:53;;;;;;;8.77;2.47;;;23.20;93.90;;;;;;5052273;28;20528;-61
2021/03/12 09:23:20;;;;;;;8.38;2.25;;;23.30;93.80;;;;;;5052235;28;20025;-62
2021/03/12 09:25:45;;;;;;;6.22;2.08;;;23.50;93.80;;;;;;5052119;28;20419;-68
2021/03/12 09:28:12;;;;;;;5.50;2.00;;;23.70;93.80;;;;;;5051538;28;20025;-64
2021/03/12 09:30:41;;;;;;;5.13;1.98;;;23.80;93.70;;;;;;5051442;28;20435;-64
2021/03/12 09:33:09;;;;;;;6.97;2.30;;;24.00;93.70;;;;;;5050861;28;20040;-64
2021/03/12 09:35:39;;;;;;;6.38;2.15;;;24.10;93.70;;;;;;5051984;28;20021;-63
2021/03/12 09:38:06;;;;;;;7.32;2.25;;;24.30;93.70;;;;;;5051999;28;20021;-67
2021/03/12 09:40:37;;;;;;;6.57;2.20;;;23.50;94.70;;;;;;5051941;28;20369;-62
2021/03/12 09:43:03;;;;;;;5.88;2.03;;;23.40;95.00;;;;;;5052201;28;20021;-65
2021/03/12 09:45:29;;;;;;;7.63;2.03;;;23.80;94.60;;;;;;5051902;28;20512;-63
2021/03/12 09:47:55;;;;;;;7.50;2.03;;;24.20;94.20;;;;;;5051913;28;20036;-65
2021/03/12 09:50:24;;;;;;;8.15;2.40;;;23.70;94.80;;;;;;5052079;28;20025;-65
2021/03/12 09:52:53;;;;;;;6.65;2.22;;;23.30;95.50;;;;;;5051414;28;20029;-65
2021/03/12 09:55:19;;;;;;;7.50;1.95;;;23.80;95.40;;;;;;5051576;28;20037;-64
2021/03/12 09:57:45;;;;;;;7.68;2.20;;;24.30;94.60;;;;;;5050475;28;20025;-64
2021/03/12 10:00:19;;;;;;;9.38;2.35;;;23.60;95.90;;;;;;5051449;28;20358;-63
2021/03/12 10:02:52;;;;;;;6.15;2.28;;;23.10;96.00;;;;;;5055330;28;20389;-66
2021/03/12 10:05:19;;;;;;;6.65;2.20;;;23.70;95.50;;;;;;5055879;28;20032;-66
2021/03/12 10:07:46;;;;;;;7.97;2.38;;;24.10;95.00;;;;;;5055792;28;20040;-67
2021/03/12 10:10:20;;;;;;;6.03;2.22;;;23.20;96.70;;;;;;5056038;28;20027;-66
2021/03/12 10:12:48;;;;;;;6.63;2.17;;;23.30;96.20;;;;;;5055713;28;20125;-66
2021/03/12 10:15:17;;;;;;;5.55;1.85;;;23.90;95.50;;;;;;5055568;28;20378;-65
2021/03/12 10:17:44;;;;;;;7.68;2.55;;;23.70;95.90;;;;;;5058878;28;20067;-64
2021/03/12 10:20:18;;;;;;;7.30;2.30;;;23.00;96.70;;;;;;5064866;28;20029;-64
2021/03/12 10:22:50;;;;;;;5.88;1.92;;;23.60;96.20;;;;;;5055834;28;20021;-65
2021/03/12 10:25:19;;;;;;;9.10;2.67;;;24.00;95.60;;;;;;5055524;28;20472;-65
2021/03/12 10:27:57;;;;;;;6.40;1.95;;;23.20;97.50;;;;;;5055518;28;20063;-65
2021/03/12 10:30:34;;;;;;;5.20;2.00;;;23.30;96.60;;;;;;5055453;28;20112;-63
2021/03/12 10:33:04;;;;;;;8.13;2.45;;;24.10;95.80;;;;;;5055659;28;20025;-64
2021/03/12 10:35:34;;;;;;;7.97;1.92;;;23.50;97.20;;;;;;5054674;28;20025;-66
2021/03/12 10:38:08;;;;;;;6.55;1.98;;;23.10;97.10;;;;;;5055040;28;20028;-63
2021/03/12 10:40:39;;;;;;;6.65;2.10;;;23.80;96.30;;;;;;5035284;28;20029;-64
2021/03/12 10:43:24;;;;;;;8.20;2.53;;;23.70;96.40;;;;;;5035269;28;20116;-64
2021/03/12 10:45:52;;;;;;;6.78;2.00;;;23.00;97.20;;;;;;5050374;28;20520;-64
2021/03/12 10:48:26;;;;;;;6.57;1.83;;;23.60;96.60;;;;;;5054798;28;20049;-65
2021/03/12 10:50:53;;;;;;;5.90;2.13;;;23.90;96.40;;;;;;5054999;28;20381;-65
2021/03/12 10:53:19;;;;;;;7.30;2.08;;;23.10;97.70;;;;;;5054034;28;20035;-64
2021/03/12 10:55:47;;;;;;;6.78;2.03;;;23.10;97.20;;;;;;5054918;28;20032;-65
2021/03/12 10:58:32;;;;;;;6.10;2.15;;;24.00;96.30;;;;;;5053686;28;20071;-63
2021/03/12 11:01:24;;;;;;;8.30;2.38;;;23.50;97.20;;;;;;5046614;28;20353;-67
2021/03/12 11:03:51;;;;;;;4.93;1.70;;;22.90;97.60;;;;;;5058419;28;20485;-66
2021/03/12 11:06:18;;;;;;;6.28;2.10;;;23.70;96.70;;;;;;5035078;28;20025;-68
2021/03/12 11:08:45;;;;;;;7.35;1.85;;;23.60;96.80;;;;;;5034659;28;20033;-63
2021/03/12 11:11:21;;;;;;;7.90;2.38;;;22.90;97.60;;;;;;5043322;28;20031;-65
2021/03/12 11:13:47;;;;;;;8.20;2.05;;;23.40;96.70;;;;;;5053023;28;20037;-65
2021/03/12 11:16:12;;;;;;;6.63;1.67;;;23.80;96.20;;;;;;5053371;28;20017;-65
2021/03/12 11:18:38;;;;;;;10.68;2.30;;;23.20;97.60;;;;;;5036814;28;20076;-64
2021/03/12 11:21:06;;;;;;;6.80;2.08;;;22.90;97.40;;;;;;5038557;28;20538;-63
2021/03/12 11:23:32;;;;;;;6.75;1.98;;;23.70;96.60;;;;;;5054301;28;20035;-63
2021/03/12 11:25:59;;;;;;;7.22;2.00;;;23.30;97.30;;;;;;5053114;28;20025;-65
2021/03/12 11:28:25;;;;;;;12.43;2.33;;;22.70;97.60;;;;;;5051774;28;20256;-64
2021/03/12 11:30:56;;;;;;;11.40;1.95;;;23.30;97.10;;;;;;5051036;28;20027;-64
2021/03/12 11:33:22;;;;;;;8.10;2.33;;;23.60;96.40;;;;;;5052731;28;20075;-65
2021/03/12 11:35:48;;;;;;;7.07;2.00;;;22.90;96.80;;;;;;5052338;28;20047;-64
2021/03/12 11:38:13;;;;;;;8.63;1.90;;;22.20;97.40;;;;;;5052910;28;20029;-64
2021/03/12 11:40:40;;;;;;;7.63;1.80;;;21.70;97.90;;;;;;5062201;28;20021;-64
2021/03/12 11:43:07;;;;;;;9.48;2.05;;;21.30;98.90;;;;;;5053168;28;20090;-63
2021/03/12 11:45:34;;;;;;;5.72;1.70;;;20.90;98.30;;;;;;5056011;28;20028;-63
2021/03/12 11:47:59;;;;;;;7.93;2.05;;;20.50;98.00;;;;;;5052561;28;20397;-63
2021/03/12 11:50:27;;;;;;;6.47;2.10;;;20.20;97.70;;;;;;5053742;28;20029;-63
2021/03/12 11:52:53;;;;;;;5.72;2.03;;;19.90;97.20;;;;;;5053980;28;20076;-63
2021/03/12 11:55:19;;;;;;;6.30;2.03;;;19.70;97.40;;;;;;5053910;28;20107;-63
2021/03/12 11:57:45;;;;;;;9.40;2.38;;;19.50;97.40;;;;;;5052424;28;20060;-63
2021/03/12 12:00:13;;;;;;;8.23;2.00;;;19.40;97.70;;;;;;5051382;28;20028;-64
2021/03/12 12:02:39;;;;;;;7.03;2.03;;;19.20;97.50;;;;;;5052306;28;20040;-60
2021/03/12 12:05:06;;;;;;;7.13;2.17;;;19.10;97.60;;;;;;5052865;28;20025;-61
2021/03/12 12:07:33;;;;;;;5.25;1.77;;;19.00;97.90;;;;;;5053195;28;20108;-64
2021/03/12 12:10:00;;;;;;;5.05;1.35;;;18.90;97.60;;;;;;5051948;28;20033;-62
2021/03/12 12:12:26;;;;;;;7.78;1.92;;;18.80;97.70;;;;;;5049608;28;20017;-69
2021/03/12 12:14:51;;;;;;;5.55;2.03;;;18.70;97.60;;;;;;5052803;28;20071;-69
2021/03/12 12:17:17;;;;;;;6.70;1.90;;;18.50;97.60;;;;;;5051777;28;20384;-68
2021/03/12 12:19:45;;;;;;;7.18;2.00;;;18.40;97.00;;;;;;5051611;28;20033;-67
2021/03/12 12:22:11;;;;;;;6.65;1.85;;;18.30;96.70;;;;;;5051875;28;20021;-73
2021/03/12 12:24:38;;;;;;;5.90;2.13;;;18.30;97.00;;;;;;5051515;28;20025;-67
2021/03/12 12:27:05;;;;;;;6.30;1.85;;;18.20;97.40;;;;;;5051893;28;20033;-64
2021/03/12 12:29:31;;;;;;;6.88;1.88;;;18.10;97.60;;;;;;5052083;28;20013;-68
2021/03/12 12:31:56;;;;;;;8.15;2.05;;;18.00;97.70;;;;;;5051784;28;20400;-69
2021/03/12 12:34:22;;;;;;;8.02;1.90;;;17.90;97.80;;;;;;5051628;28;20029;-69
2021/03/12 12:36:48;;;;;;;7.53;2.20;;;17.90;97.80;;;;;;5051395;28;20017;-66
2021/03/12 12:39:13;;;;;;;19.08;5.05;;;17.80;98.00;;;;;;5051747;28;20021;-64
2021/03/12 12:41:40;;;;;;;14.93;4.13;;;17.80;99.90;;;;;;5051610;28;20013;-64
2021/03/12 12:44:07;;;;;;;18.17;4.22;;;17.80;99.70;;;;;;5051078;28;20108;-66
2021/03/12 12:46:33;;;;;;;16.45;3.65;;;17.60;99.90;;;;;;5049054;28;20024;-63
2021/03/12 12:48:59;;;;;;;20.27;3.78;;;17.60;99.90;;;;;;5051314;28;20028;-68
2021/03/12 12:51:24;;;;;;;20.40;4.07;;;17.50;99.90;;;;;;5051505;28;20520;-65